sensor_id;sensor_type;location;lat;lon;timestamp;P1;durP1;ratioP1;P2;durP2;ratioP2
53654;SDS011;39558;52.028;8.536;2024-02-16T00:00:48;1.88;;;0.80;;
53654;SDS011;39558;52.028;8.536;2024-02-16T00:03:14;2.33;;;0.90;;
53654;SDS011;39558;52.028;8.536;2024-02-16T00:05:39;0.93;;;0.50;;
53654;SDS011;39558;52.028;8.536;2024-02-16T00:08:05;2.13;;;0.80;;
53654;SDS011;39558;52.028;8.536;2024-02-16T00:10:31;2.25;;;0.90;;
53654;SDS011;39558;52.028;8.536;2024-02-16T00:12:57;1.23;;;0.73;;
53654;SDS011;39558;52.028;8.536;2024-02-16T00:15:23;3.05;;;1.00;;
53654;SDS011;39558;52.028;8.536;2024-02-16T00:17:49;2.58;;;1.00;;
53654;SDS011;39558;52.028;8.536;2024-02-16T00:20:15;1.65;;;0.82;;
53654;SDS011;39558;52.028;8.536;2024-02-16T00:22:41;1.88;;;0.85;;
53654;SDS011;39558;52.028;8.536;2024-02-16T00:25:07;1.70;;;0.90;;
53654;SDS011;39558;52.028;8.536;2024-02-16T00:27:33;1.42;;;0.80;;
53654;SDS011;39558;52.028;8.536;2024-02-16T00:29:59;2.05;;;0.95;;
53654;SDS011;39558;52.028;8.536;2024-02-16T00:32:27;1.42;;;0.68;;
53654;SDS011;39558;52.028;8.536;2024-02-16T00:34:55;1.65;;;0.77;;
53654;SDS011;39558;52.028;8.536;2024-02-16T00:37:21;1.30;;;0.80;;
53654;SDS011;39558;52.028;8.536;2024-02-16T00:39:47;2.08;;;0.93;;
53654;SDS011;39558;52.028;8.536;2024-02-16T00:42:13;1.98;;;0.82;;
53654;SDS011;39558;52.028;8.536;2024-02-16T00:44:38;2.63;;;1.05;;
53654;SDS011;39558;52.028;8.536;2024-02-16T00:47:04;1.67;;;0.77;;
53654;SDS011;39558;52.028;8.536;2024-02-16T00:49:31;1.90;;;0.80;;
53654;SDS011;39558;52.028;8.536;2024-02-16T00:51:56;3.22;;;0.88;;
53654;SDS011;39558;52.028;8.536;2024-02-16T00:54:22;3.28;;;1.20;;
53654;SDS011;39558;52.028;8.536;2024-02-16T00:56:48;1.98;;;1.05;;
53654;SDS011;39558;52.028;8.536;2024-02-16T00:59:14;2.00;;;0.90;;
53654;SDS011;39558;52.028;8.536;2024-02-16T01:01:40;3.72;;;0.95;;
53654;SDS011;39558;52.028;8.536;2024-02-16T01:04:06;2.15;;;0.85;;
53654;SDS011;39558;52.028;8.536;2024-02-16T01:06:33;2.17;;;0.93;;
53654;SDS011;39558;52.028;8.536;2024-02-16T01:08:59;2.65;;;1.40;;
53654;SDS011;39558;52.028;8.536;2024-02-16T01:11:25;3.90;;;1.20;;
53654;SDS011;39558;52.028;8.536;2024-02-16T01:13:51;2.08;;;1.10;;
53654;SDS011;39558;52.028;8.536;2024-02-16T01:16:17;1.98;;;1.20;;
53654;SDS011;39558;52.028;8.536;2024-02-16T01:18:43;3.00;;;1.10;;
53654;SDS011;39558;52.028;8.536;2024-02-16T01:21:10;1.92;;;1.35;;
53654;SDS011;39558;52.028;8.536;2024-02-16T01:23:36;2.08;;;1.20;;
53654;SDS011;39558;52.028;8.536;2024-02-16T01:26:02;2.63;;;1.17;;
53654;SDS011;39558;52.028;8.536;2024-02-16T01:28:28;3.25;;;1.33;;
53654;SDS011;39558;52.028;8.536;2024-02-16T01:30:53;2.50;;;1.42;;
53654;SDS011;39558;52.028;8.536;2024-02-16T01:33:21;2.17;;;1.30;;
53654;SDS011;39558;52.028;8.536;2024-02-16T01:35:47;2.05;;;1.13;;
53654;SDS011;39558;52.028;8.536;2024-02-16T01:38:13;2.53;;;1.40;;
53654;SDS011;39558;52.028;8.536;2024-02-16T01:40:39;2.05;;;1.30;;
53654;SDS011;39558;52.028;8.536;2024-02-16T01:43:05;1.95;;;1.20;;
53654;SDS011;39558;52.028;8.536;2024-02-16T01:45:31;5.82;;;1.52;;
53654;SDS011;39558;52.028;8.536;2024-02-16T01:47:57;3.97;;;1.70;;
53654;SDS011;39558;52.028;8.536;2024-02-16T01:50:24;6.95;;;1.50;;
53654;SDS011;39558;52.028;8.536;2024-02-16T01:52:50;2.13;;;1.30;;
53654;SDS011;39558;52.028;8.536;2024-02-16T01:55:16;3.10;;;1.30;;
53654;SDS011;39558;52.028;8.536;2024-02-16T01:57:43;2.58;;;1.83;;
53654;SDS011;39558;52.028;8.536;2024-02-16T02:00:09;2.65;;;1.48;;
53654;SDS011;39558;52.028;8.536;2024-02-16T02:02:35;3.20;;;1.80;;
53654;SDS011;39558;52.028;8.536;2024-02-16T02:05:02;3.17;;;1.45;;
53654;SDS011;39558;52.028;8.536;2024-02-16T02:07:28;6.05;;;1.80;;
53654;SDS011;39558;52.028;8.536;2024-02-16T02:09:54;3.15;;;1.63;;
53654;SDS011;39558;52.028;8.536;2024-02-16T02:12:20;3.03;;;1.52;;
53654;SDS011;39558;52.028;8.536;2024-02-16T02:14:47;2.70;;;1.50;;
53654;SDS011;39558;52.028;8.536;2024-02-16T02:17:13;3.03;;;1.45;;
53654;SDS011;39558;52.028;8.536;2024-02-16T02:19:39;3.40;;;1.85;;
53654;SDS011;39558;52.028;8.536;2024-02-16T02:22:09;3.70;;;1.70;;
53654;SDS011;39558;52.028;8.536;2024-02-16T02:24:35;3.22;;;1.75;;
53654;SDS011;39558;52.028;8.536;2024-02-16T02:27:01;3.45;;;1.60;;
53654;SDS011;39558;52.028;8.536;2024-02-16T02:29:27;2.50;;;1.35;;
53654;SDS011;39558;52.028;8.536;2024-02-16T02:31:53;3.88;;;1.80;;
53654;SDS011;39558;52.028;8.536;2024-02-16T02:34:19;3.38;;;1.73;;
53654;SDS011;39558;52.028;8.536;2024-02-16T02:36:45;4.20;;;2.22;;
53654;SDS011;39558;52.028;8.536;2024-02-16T02:39:11;2.88;;;1.73;;
53654;SDS011;39558;52.028;8.536;2024-02-16T02:41:38;3.83;;;1.77;;
53654;SDS011;39558;52.028;8.536;2024-02-16T02:44:04;3.20;;;1.80;;
53654;SDS011;39558;52.028;8.536;2024-02-16T02:46:30;2.67;;;1.73;;
53654;SDS011;39558;52.028;8.536;2024-02-16T02:48:56;3.00;;;1.73;;
53654;SDS011;39558;52.028;8.536;2024-02-16T02:51:22;3.67;;;2.10;;
53654;SDS011;39558;52.028;8.536;2024-02-16T02:53:48;3.70;;;1.70;;
53654;SDS011;39558;52.028;8.536;2024-02-16T02:56:14;4.95;;;2.15;;
53654;SDS011;39558;52.028;8.536;2024-02-16T02:58:40;2.97;;;1.83;;
53654;SDS011;39558;52.028;8.536;2024-02-16T03:01:06;3.88;;;1.90;;
53654;SDS011;39558;52.028;8.536;2024-02-16T03:03:35;3.65;;;1.90;;
53654;SDS011;39558;52.028;8.536;2024-02-16T03:06:01;3.40;;;1.80;;
53654;SDS011;39558;52.028;8.536;2024-02-16T03:08:28;3.10;;;2.03;;
53654;SDS011;39558;52.028;8.536;2024-02-16T03:10:54;2.33;;;1.67;;
53654;SDS011;39558;52.028;8.536;2024-02-16T03:13:20;4.40;;;2.20;;
53654;SDS011;39558;52.028;8.536;2024-02-16T03:15:45;4.03;;;2.08;;
53654;SDS011;39558;52.028;8.536;2024-02-16T03:18:11;3.22;;;2.00;;
53654;SDS011;39558;52.028;8.536;2024-02-16T03:20:38;3.22;;;1.70;;
53654;SDS011;39558;52.028;8.536;2024-02-16T03:23:04;3.97;;;2.22;;
53654;SDS011;39558;52.028;8.536;2024-02-16T03:25:30;4.22;;;1.85;;
53654;SDS011;39558;52.028;8.536;2024-02-16T03:27:56;3.40;;;1.90;;
53654;SDS011;39558;52.028;8.536;2024-02-16T03:30:22;4.63;;;2.13;;
53654;SDS011;39558;52.028;8.536;2024-02-16T03:32:51;3.47;;;2.00;;
53654;SDS011;39558;52.028;8.536;2024-02-16T03:35:17;4.13;;;2.33;;
53654;SDS011;39558;52.028;8.536;2024-02-16T03:37:43;3.95;;;2.15;;
53654;SDS011;39558;52.028;8.536;2024-02-16T03:40:10;4.53;;;2.20;;
53654;SDS011;39558;52.028;8.536;2024-02-16T03:42:37;3.97;;;1.63;;
53654;SDS011;39558;52.028;8.536;2024-02-16T03:45:04;4.05;;;2.10;;
53654;SDS011;39558;52.028;8.536;2024-02-16T03:47:30;4.45;;;2.58;;
53654;SDS011;39558;52.028;8.536;2024-02-16T03:49:56;5.47;;;2.22;;
53654;SDS011;39558;52.028;8.536;2024-02-16T03:52:22;4.03;;;2.35;;
53654;SDS011;39558;52.028;8.536;2024-02-16T03:54:47;4.50;;;2.30;;
53654;SDS011;39558;52.028;8.536;2024-02-16T03:57:14;2.97;;;1.95;;
53654;SDS011;39558;52.028;8.536;2024-02-16T03:59:41;4.85;;;2.50;;
53654;SDS011;39558;52.028;8.536;2024-02-16T04:02:08;4.28;;;2.25;;
53654;SDS011;39558;52.028;8.536;2024-02-16T04:04:34;3.83;;;2.30;;
53654;SDS011;39558;52.028;8.536;2024-02-16T04:07:00;4.50;;;2.40;;
53654;SDS011;39558;52.028;8.536;2024-02-16T04:09:26;4.00;;;2.13;;
53654;SDS011;39558;52.028;8.536;2024-02-16T04:11:52;3.05;;;1.88;;
53654;SDS011;39558;52.028;8.536;2024-02-16T04:14:18;4.40;;;2.42;;
53654;SDS011;39558;52.028;8.536;2024-02-16T04:16:44;4.32;;;2.35;;
53654;SDS011;39558;52.028;8.536;2024-02-16T04:19:10;3.42;;;2.30;;
53654;SDS011;39558;52.028;8.536;2024-02-16T04:21:36;4.20;;;2.35;;
53654;SDS011;39558;52.028;8.536;2024-02-16T04:24:02;4.75;;;2.42;;
53654;SDS011;39558;52.028;8.536;2024-02-16T04:26:28;4.50;;;2.60;;
53654;SDS011;39558;52.028;8.536;2024-02-16T04:28:54;5.75;;;2.47;;
53654;SDS011;39558;52.028;8.536;2024-02-16T04:31:20;3.45;;;2.30;;
53654;SDS011;39558;52.028;8.536;2024-02-16T04:33:45;4.47;;;2.88;;
53654;SDS011;39558;52.028;8.536;2024-02-16T04:36:11;4.25;;;2.72;;
53654;SDS011;39558;52.028;8.536;2024-02-16T04:38:37;4.30;;;2.25;;
53654;SDS011;39558;52.028;8.536;2024-02-16T04:41:06;4.95;;;2.35;;
53654;SDS011;39558;52.028;8.536;2024-02-16T04:43:33;4.10;;;2.33;;
53654;SDS011;39558;52.028;8.536;2024-02-16T04:45:59;4.60;;;2.33;;
53654;SDS011;39558;52.028;8.536;2024-02-16T04:48:24;3.15;;;1.75;;
53654;SDS011;39558;52.028;8.536;2024-02-16T04:50:50;4.55;;;2.40;;
53654;SDS011;39558;52.028;8.536;2024-02-16T04:53:16;6.35;;;2.05;;
53654;SDS011;39558;52.028;8.536;2024-02-16T04:55:42;4.38;;;2.65;;
53654;SDS011;39558;52.028;8.536;2024-02-16T04:58:08;7.43;;;2.63;;
53654;SDS011;39558;52.028;8.536;2024-02-16T05:00:37;4.47;;;2.45;;
53654;SDS011;39558;52.028;8.536;2024-02-16T05:03:04;4.63;;;2.30;;
53654;SDS011;39558;52.028;8.536;2024-02-16T05:05:30;3.67;;;1.98;;
53654;SDS011;39558;52.028;8.536;2024-02-16T05:07:56;4.78;;;2.75;;
53654;SDS011;39558;52.028;8.536;2024-02-16T05:10:22;5.78;;;2.45;;
53654;SDS011;39558;52.028;8.536;2024-02-16T05:12:48;5.10;;;2.47;;
53654;SDS011;39558;52.028;8.536;2024-02-16T05:15:14;5.10;;;2.75;;
53654;SDS011;39558;52.028;8.536;2024-02-16T05:17:40;4.50;;;2.53;;
53654;SDS011;39558;52.028;8.536;2024-02-16T05:20:12;3.95;;;2.47;;
53654;SDS011;39558;52.028;8.536;2024-02-16T05:22:45;5.72;;;3.25;;
53654;SDS011;39558;52.028;8.536;2024-02-16T05:25:13;5.13;;;2.42;;
53654;SDS011;39558;52.028;8.536;2024-02-16T05:27:40;4.80;;;2.63;;
53654;SDS011;39558;52.028;8.536;2024-02-16T05:30:06;5.03;;;2.58;;
53654;SDS011;39558;52.028;8.536;2024-02-16T05:32:35;4.10;;;2.17;;
53654;SDS011;39558;52.028;8.536;2024-02-16T05:35:02;5.70;;;2.38;;
53654;SDS011;39558;52.028;8.536;2024-02-16T05:37:36;3.78;;;1.90;;
53654;SDS011;39558;52.028;8.536;2024-02-16T05:40:02;3.90;;;2.35;;
53654;SDS011;39558;52.028;8.536;2024-02-16T05:42:43;3.88;;;2.03;;
53654;SDS011;39558;52.028;8.536;2024-02-16T05:45:10;4.22;;;2.20;;
53654;SDS011;39558;52.028;8.536;2024-02-16T05:47:36;6.38;;;2.33;;
53654;SDS011;39558;52.028;8.536;2024-02-16T05:50:03;5.00;;;2.50;;
53654;SDS011;39558;52.028;8.536;2024-02-16T05:52:30;3.85;;;2.25;;
53654;SDS011;39558;52.028;8.536;2024-02-16T05:54:56;3.50;;;2.10;;
53654;SDS011;39558;52.028;8.536;2024-02-16T05:57:22;4.43;;;2.58;;
53654;SDS011;39558;52.028;8.536;2024-02-16T05:59:49;3.67;;;2.08;;
53654;SDS011;39558;52.028;8.536;2024-02-16T06:02:16;4.40;;;2.35;;
53654;SDS011;39558;52.028;8.536;2024-02-16T06:04:42;2.75;;;1.73;;
53654;SDS011;39558;52.028;8.536;2024-02-16T06:07:08;3.25;;;2.13;;
53654;SDS011;39558;52.028;8.536;2024-02-16T06:09:35;4.90;;;2.95;;
53654;SDS011;39558;52.028;8.536;2024-02-16T06:12:05;3.55;;;2.33;;
53654;SDS011;39558;52.028;8.536;2024-02-16T06:14:32;5.50;;;2.72;;
53654;SDS011;39558;52.028;8.536;2024-02-16T06:17:10;3.80;;;2.30;;
53654;SDS011;39558;52.028;8.536;2024-02-16T06:19:36;4.05;;;2.28;;
53654;SDS011;39558;52.028;8.536;2024-02-16T06:22:02;3.33;;;1.90;;
53654;SDS011;39558;52.028;8.536;2024-02-16T06:24:28;3.75;;;2.25;;
53654;SDS011;39558;52.028;8.536;2024-02-16T06:26:54;3.67;;;2.22;;
53654;SDS011;39558;52.028;8.536;2024-02-16T06:29:20;4.20;;;2.05;;
53654;SDS011;39558;52.028;8.536;2024-02-16T06:31:46;4.20;;;2.05;;
53654;SDS011;39558;52.028;8.536;2024-02-16T06:34:13;4.55;;;2.55;;
53654;SDS011;39558;52.028;8.536;2024-02-16T06:36:39;3.60;;;2.00;;
53654;SDS011;39558;52.028;8.536;2024-02-16T06:39:05;3.38;;;2.17;;
53654;SDS011;39558;52.028;8.536;2024-02-16T06:41:31;3.30;;;2.00;;
53654;SDS011;39558;52.028;8.536;2024-02-16T06:43:57;4.95;;;2.60;;
53654;SDS011;39558;52.028;8.536;2024-02-16T06:46:23;4.30;;;2.40;;
53654;SDS011;39558;52.028;8.536;2024-02-16T06:48:50;4.63;;;2.20;;
53654;SDS011;39558;52.028;8.536;2024-02-16T06:51:17;3.88;;;2.00;;
53654;SDS011;39558;52.028;8.536;2024-02-16T06:53:43;5.03;;;2.05;;
53654;SDS011;39558;52.028;8.536;2024-02-16T06:56:09;4.53;;;2.38;;
53654;SDS011;39558;52.028;8.536;2024-02-16T06:58:35;3.58;;;2.20;;
53654;SDS011;39558;52.028;8.536;2024-02-16T07:01:02;3.90;;;2.00;;
53654;SDS011;39558;52.028;8.536;2024-02-16T07:03:28;6.28;;;2.70;;
53654;SDS011;39558;52.028;8.536;2024-02-16T07:05:54;4.38;;;2.40;;
53654;SDS011;39558;52.028;8.536;2024-02-16T07:08:20;3.63;;;2.08;;
53654;SDS011;39558;52.028;8.536;2024-02-16T07:10:48;4.65;;;2.50;;
53654;SDS011;39558;52.028;8.536;2024-02-16T07:13:16;4.03;;;2.03;;
53654;SDS011;39558;52.028;8.536;2024-02-16T07:15:42;3.60;;;1.90;;
53654;SDS011;39558;52.028;8.536;2024-02-16T07:18:08;3.78;;;2.20;;
53654;SDS011;39558;52.028;8.536;2024-02-16T07:20:34;3.63;;;2.10;;
53654;SDS011;39558;52.028;8.536;2024-02-16T07:23:01;3.70;;;2.05;;
53654;SDS011;39558;52.028;8.536;2024-02-16T07:25:27;3.47;;;2.10;;
53654;SDS011;39558;52.028;8.536;2024-02-16T07:27:53;3.95;;;2.17;;
53654;SDS011;39558;52.028;8.536;2024-02-16T07:30:19;5.85;;;2.17;;
53654;SDS011;39558;52.028;8.536;2024-02-16T07:32:48;4.70;;;2.20;;
53654;SDS011;39558;52.028;8.536;2024-02-16T07:35:15;2.90;;;1.88;;
53654;SDS011;39558;52.028;8.536;2024-02-16T07:37:41;3.42;;;1.80;;
53654;SDS011;39558;52.028;8.536;2024-02-16T07:40:08;4.47;;;2.08;;
53654;SDS011;39558;52.028;8.536;2024-02-16T07:42:40;7.28;;;2.50;;
53654;SDS011;39558;52.028;8.536;2024-02-16T07:45:07;3.75;;;2.08;;
53654;SDS011;39558;52.028;8.536;2024-02-16T07:47:34;4.13;;;2.33;;
53654;SDS011;39558;52.028;8.536;2024-02-16T07:50:00;3.70;;;2.17;;
53654;SDS011;39558;52.028;8.536;2024-02-16T07:52:26;4.32;;;2.10;;
53654;SDS011;39558;52.028;8.536;2024-02-16T07:54:52;3.40;;;1.98;;
53654;SDS011;39558;52.028;8.536;2024-02-16T07:57:18;4.43;;;2.05;;
53654;SDS011;39558;52.028;8.536;2024-02-16T07:59:44;3.65;;;1.77;;
53654;SDS011;39558;52.028;8.536;2024-02-16T08:02:10;5.35;;;2.35;;
53654;SDS011;39558;52.028;8.536;2024-02-16T08:04:40;3.45;;;2.10;;
53654;SDS011;39558;52.028;8.536;2024-02-16T08:07:06;4.88;;;2.20;;
53654;SDS011;39558;52.028;8.536;2024-02-16T08:09:32;3.42;;;1.75;;
53654;SDS011;39558;52.028;8.536;2024-02-16T08:11:58;4.10;;;2.13;;
53654;SDS011;39558;52.028;8.536;2024-02-16T08:14:24;4.50;;;2.50;;
53654;SDS011;39558;52.028;8.536;2024-02-16T08:16:50;5.00;;;2.53;;
53654;SDS011;39558;52.028;8.536;2024-02-16T08:19:16;4.70;;;2.53;;
53654;SDS011;39558;52.028;8.536;2024-02-16T08:21:42;4.30;;;2.35;;
53654;SDS011;39558;52.028;8.536;2024-02-16T08:24:09;3.63;;;1.80;;
53654;SDS011;39558;52.028;8.536;2024-02-16T08:26:35;3.72;;;2.28;;
53654;SDS011;39558;52.028;8.536;2024-02-16T08:29:01;3.97;;;2.30;;
53654;SDS011;39558;52.028;8.536;2024-02-16T08:31:27;5.05;;;2.15;;
53654;SDS011;39558;52.028;8.536;2024-02-16T08:33:52;3.53;;;1.92;;
53654;SDS011;39558;52.028;8.536;2024-02-16T08:36:18;3.90;;;2.17;;
53654;SDS011;39558;52.028;8.536;2024-02-16T08:38:46;3.17;;;1.90;;
53654;SDS011;39558;52.028;8.536;2024-02-16T08:41:12;2.92;;;1.70;;
53654;SDS011;39558;52.028;8.536;2024-02-16T08:43:38;3.00;;;2.15;;
53654;SDS011;39558;52.028;8.536;2024-02-16T08:46:04;4.05;;;2.40;;
53654;SDS011;39558;52.028;8.536;2024-02-16T08:48:30;3.90;;;2.25;;
53654;SDS011;39558;52.028;8.536;2024-02-16T08:50:56;3.08;;;1.80;;
53654;SDS011;39558;52.028;8.536;2024-02-16T08:53:22;4.95;;;2.13;;
53654;SDS011;39558;52.028;8.536;2024-02-16T08:55:48;4.35;;;2.60;;
53654;SDS011;39558;52.028;8.536;2024-02-16T08:58:14;5.18;;;2.58;;
53654;SDS011;39558;52.028;8.536;2024-02-16T09:00:40;3.72;;;2.22;;
53654;SDS011;39558;52.028;8.536;2024-02-16T09:03:06;3.70;;;2.05;;
53654;SDS011;39558;52.028;8.536;2024-02-16T09:05:33;3.40;;;1.92;;
53654;SDS011;39558;52.028;8.536;2024-02-16T09:07:59;4.60;;;2.10;;
53654;SDS011;39558;52.028;8.536;2024-02-16T09:10:27;4.03;;;2.30;;
53654;SDS011;39558;52.028;8.536;2024-02-16T09:12:53;3.78;;;1.95;;
53654;SDS011;39558;52.028;8.536;2024-02-16T09:15:18;3.92;;;2.25;;
53654;SDS011;39558;52.028;8.536;2024-02-16T09:17:44;4.63;;;1.77;;
53654;SDS011;39558;52.028;8.536;2024-02-16T09:20:10;3.78;;;1.85;;
53654;SDS011;39558;52.028;8.536;2024-02-16T09:22:37;3.33;;;1.80;;
53654;SDS011;39558;52.028;8.536;2024-02-16T09:25:04;3.47;;;1.70;;
53654;SDS011;39558;52.028;8.536;2024-02-16T09:27:30;3.92;;;2.20;;
53654;SDS011;39558;52.028;8.536;2024-02-16T09:29:56;3.40;;;1.50;;
53654;SDS011;39558;52.028;8.536;2024-02-16T09:32:22;2.88;;;1.65;;
53654;SDS011;39558;52.028;8.536;2024-02-16T09:34:48;3.35;;;1.60;;
53654;SDS011;39558;52.028;8.536;2024-02-16T09:37:15;4.50;;;2.10;;
53654;SDS011;39558;52.028;8.536;2024-02-16T09:39:41;3.30;;;1.80;;
53654;SDS011;39558;52.028;8.536;2024-02-16T09:42:08;3.35;;;1.90;;
53654;SDS011;39558;52.028;8.536;2024-02-16T09:44:35;4.75;;;1.95;;
53654;SDS011;39558;52.028;8.536;2024-02-16T09:47:01;3.58;;;1.80;;
53654;SDS011;39558;52.028;8.536;2024-02-16T09:49:28;3.38;;;1.80;;
53654;SDS011;39558;52.028;8.536;2024-02-16T09:51:54;3.47;;;1.95;;
53654;SDS011;39558;52.028;8.536;2024-02-16T09:54:22;5.45;;;1.80;;
53654;SDS011;39558;52.028;8.536;2024-02-16T09:56:48;4.13;;;1.90;;
53654;SDS011;39558;52.028;8.536;2024-02-16T09:59:14;3.08;;;1.80;;
53654;SDS011;39558;52.028;8.536;2024-02-16T10:01:40;5.82;;;1.50;;
53654;SDS011;39558;52.028;8.536;2024-02-16T10:04:06;4.80;;;2.08;;
53654;SDS011;39558;52.028;8.536;2024-02-16T10:06:45;2.92;;;1.60;;
53654;SDS011;39558;52.028;8.536;2024-02-16T10:09:21;4.13;;;2.03;;
53654;SDS011;39558;52.028;8.536;2024-02-16T10:11:47;4.10;;;1.88;;
53654;SDS011;39558;52.028;8.536;2024-02-16T10:14:13;2.88;;;1.70;;
53654;SDS011;39558;52.028;8.536;2024-02-16T10:16:39;3.33;;;1.45;;
53654;SDS011;39558;52.028;8.536;2024-02-16T10:19:06;4.38;;;1.80;;
53654;SDS011;39558;52.028;8.536;2024-02-16T10:21:32;2.38;;;1.50;;
53654;SDS011;39558;52.028;8.536;2024-02-16T10:26:32;5.40;;;2.17;;
53654;SDS011;39558;52.028;8.536;2024-02-16T10:29:02;3.17;;;1.90;;
53654;SDS011;39558;52.028;8.536;2024-02-16T10:31:28;2.78;;;1.40;;
53654;SDS011;39558;52.028;8.536;2024-02-16T10:33:56;3.05;;;1.65;;
53654;SDS011;39558;52.028;8.536;2024-02-16T10:36:22;3.40;;;2.05;;
53654;SDS011;39558;52.028;8.536;2024-02-16T10:38:50;2.20;;;1.15;;
53654;SDS011;39558;52.028;8.536;2024-02-16T10:41:17;2.30;;;1.25;;
53654;SDS011;39558;52.028;8.536;2024-02-16T10:43:44;2.63;;;1.50;;
53654;SDS011;39558;52.028;8.536;2024-02-16T10:46:12;3.05;;;1.40;;
53654;SDS011;39558;52.028;8.536;2024-02-16T10:48:38;2.78;;;1.20;;
53654;SDS011;39558;52.028;8.536;2024-02-16T10:51:04;3.20;;;1.58;;
53654;SDS011;39558;52.028;8.536;2024-02-16T10:53:30;1.92;;;1.27;;
53654;SDS011;39558;52.028;8.536;2024-02-16T10:55:57;3.20;;;1.48;;
53654;SDS011;39558;52.028;8.536;2024-02-16T10:58:24;2.72;;;1.58;;
53654;SDS011;39558;52.028;8.536;2024-02-16T11:00:51;2.25;;;1.23;;
53654;SDS011;39558;52.028;8.536;2024-02-16T11:03:17;2.47;;;1.25;;
53654;SDS011;39558;52.028;8.536;2024-02-16T11:05:43;2.33;;;1.42;;
53654;SDS011;39558;52.028;8.536;2024-02-16T11:08:13;2.40;;;1.27;;
53654;SDS011;39558;52.028;8.536;2024-02-16T11:10:39;3.83;;;1.33;;
53654;SDS011;39558;52.028;8.536;2024-02-16T11:13:05;4.60;;;2.15;;
53654;SDS011;39558;52.028;8.536;2024-02-16T11:15:32;5.72;;;2.72;;
53654;SDS011;39558;52.028;8.536;2024-02-16T11:18:01;6.20;;;3.80;;
53654;SDS011;39558;52.028;8.536;2024-02-16T11:20:27;4.97;;;3.03;;
53654;SDS011;39558;52.028;8.536;2024-02-16T11:23:04;6.65;;;3.58;;
53654;SDS011;39558;52.028;8.536;2024-02-16T11:25:31;6.72;;;2.85;;
53654;SDS011;39558;52.028;8.536;2024-02-16T11:27:58;6.63;;;3.70;;
53654;SDS011;39558;52.028;8.536;2024-02-16T11:30:24;7.85;;;3.60;;
53654;SDS011;39558;52.028;8.536;2024-02-16T11:32:51;6.88;;;3.10;;
53654;SDS011;39558;52.028;8.536;2024-02-16T11:35:16;5.70;;;2.70;;
53654;SDS011;39558;52.028;8.536;2024-02-16T11:37:43;3.15;;;1.90;;
53654;SDS011;39558;52.028;8.536;2024-02-16T11:40:13;5.25;;;2.10;;
53654;SDS011;39558;52.028;8.536;2024-02-16T11:42:39;3.85;;;1.90;;
53654;SDS011;39558;52.028;8.536;2024-02-16T11:45:09;5.15;;;1.80;;
53654;SDS011;39558;52.028;8.536;2024-02-16T11:47:37;4.97;;;1.58;;
53654;SDS011;39558;52.028;8.536;2024-02-16T11:50:07;4.50;;;1.83;;
53654;SDS011;39558;52.028;8.536;2024-02-16T11:52:36;3.50;;;1.45;;
53654;SDS011;39558;52.028;8.536;2024-02-16T11:55:02;2.08;;;1.33;;
53654;SDS011;39558;52.028;8.536;2024-02-16T11:57:28;2.60;;;1.10;;
53654;SDS011;39558;52.028;8.536;2024-02-16T11:59:54;3.15;;;1.52;;
53654;SDS011;39558;52.028;8.536;2024-02-16T12:02:21;2.28;;;1.38;;
53654;SDS011;39558;52.028;8.536;2024-02-16T12:04:47;4.25;;;1.60;;
53654;SDS011;39558;52.028;8.536;2024-02-16T12:07:13;2.65;;;1.20;;
53654;SDS011;39558;52.028;8.536;2024-02-16T12:09:39;2.47;;;1.40;;
53654;SDS011;39558;52.028;8.536;2024-02-16T12:12:05;3.50;;;1.55;;
53654;SDS011;39558;52.028;8.536;2024-02-16T12:14:31;2.45;;;1.27;;
53654;SDS011;39558;52.028;8.536;2024-02-16T12:16:58;2.58;;;1.27;;
53654;SDS011;39558;52.028;8.536;2024-02-16T12:19:24;2.13;;;1.27;;
53654;SDS011;39558;52.028;8.536;2024-02-16T12:21:53;3.03;;;1.15;;
53654;SDS011;39558;52.028;8.536;2024-02-16T12:24:20;1.73;;;0.95;;
53654;SDS011;39558;52.028;8.536;2024-02-16T12:26:46;2.78;;;1.20;;
53654;SDS011;39558;52.028;8.536;2024-02-16T12:29:12;1.98;;;1.00;;
53654;SDS011;39558;52.028;8.536;2024-02-16T12:31:39;2.17;;;1.08;;
53654;SDS011;39558;52.028;8.536;2024-02-16T12:34:06;2.53;;;1.13;;
53654;SDS011;39558;52.028;8.536;2024-02-16T12:36:32;2.33;;;0.70;;
53654;SDS011;39558;52.028;8.536;2024-02-16T12:38:59;1.52;;;0.80;;
53654;SDS011;39558;52.028;8.536;2024-02-16T12:41:25;1.77;;;0.88;;
53654;SDS011;39558;52.028;8.536;2024-02-16T12:43:51;3.70;;;1.35;;
53654;SDS011;39558;52.028;8.536;2024-02-16T12:46:19;2.15;;;0.98;;
53654;SDS011;39558;52.028;8.536;2024-02-16T12:48:45;2.20;;;1.00;;
53654;SDS011;39558;52.028;8.536;2024-02-16T12:51:10;1.98;;;0.90;;
53654;SDS011;39558;52.028;8.536;2024-02-16T12:53:36;1.48;;;0.80;;
53654;SDS011;39558;52.028;8.536;2024-02-16T12:56:08;1.77;;;1.02;;
53654;SDS011;39558;52.028;8.536;2024-02-16T12:58:37;5.88;;;1.20;;
53654;SDS011;39558;52.028;8.536;2024-02-16T13:01:04;1.80;;;0.97;;
53654;SDS011;39558;52.028;8.536;2024-02-16T13:03:36;3.58;;;1.08;;
53654;SDS011;39558;52.028;8.536;2024-02-16T13:06:02;2.10;;;1.00;;
53654;SDS011;39558;52.028;8.536;2024-02-16T13:08:29;1.70;;;0.95;;
53654;SDS011;39558;52.028;8.536;2024-02-16T13:10:55;1.60;;;0.80;;
53654;SDS011;39558;52.028;8.536;2024-02-16T13:13:21;1.95;;;0.93;;
53654;SDS011;39558;52.028;8.536;2024-02-16T13:15:47;3.13;;;0.73;;
53654;SDS011;39558;52.028;8.536;2024-02-16T13:18:14;1.85;;;0.90;;
53654;SDS011;39558;52.028;8.536;2024-02-16T13:20:40;1.98;;;1.00;;
53654;SDS011;39558;52.028;8.536;2024-02-16T13:23:06;1.40;;;0.70;;
53654;SDS011;39558;52.028;8.536;2024-02-16T13:25:32;2.35;;;1.08;;
53654;SDS011;39558;52.028;8.536;2024-02-16T13:27:58;2.35;;;1.20;;
53654;SDS011;39558;52.028;8.536;2024-02-16T13:30:24;3.03;;;1.10;;
53654;SDS011;39558;52.028;8.536;2024-02-16T13:32:50;1.73;;;0.80;;
53654;SDS011;39558;52.028;8.536;2024-02-16T13:35:16;2.20;;;1.00;;
53654;SDS011;39558;52.028;8.536;2024-02-16T13:37:42;2.95;;;0.98;;
53654;SDS011;39558;52.028;8.536;2024-02-16T13:40:08;2.63;;;1.00;;
53654;SDS011;39558;52.028;8.536;2024-02-16T13:42:38;3.03;;;1.10;;
53654;SDS011;39558;52.028;8.536;2024-02-16T13:45:04;1.92;;;0.90;;
53654;SDS011;39558;52.028;8.536;2024-02-16T13:47:30;1.73;;;0.98;;
53654;SDS011;39558;52.028;8.536;2024-02-16T13:49:55;1.85;;;0.65;;
53654;SDS011;39558;52.028;8.536;2024-02-16T13:52:22;1.92;;;0.80;;
53654;SDS011;39558;52.028;8.536;2024-02-16T13:54:49;1.50;;;0.75;;
53654;SDS011;39558;52.028;8.536;2024-02-16T13:57:14;3.53;;;0.88;;
53654;SDS011;39558;52.028;8.536;2024-02-16T13:59:41;2.42;;;1.15;;
53654;SDS011;39558;52.028;8.536;2024-02-16T14:02:07;2.42;;;0.80;;
53654;SDS011;39558;52.028;8.536;2024-02-16T14:04:34;1.98;;;0.90;;
53654;SDS011;39558;52.028;8.536;2024-02-16T14:07:00;1.45;;;0.80;;
53654;SDS011;39558;52.028;8.536;2024-02-16T14:09:26;3.20;;;1.00;;
53654;SDS011;39558;52.028;8.536;2024-02-16T14:11:52;1.70;;;0.80;;
53654;SDS011;39558;52.028;8.536;2024-02-16T14:14:23;1.95;;;0.85;;
53654;SDS011;39558;52.028;8.536;2024-02-16T14:16:49;2.38;;;1.05;;
53654;SDS011;39558;52.028;8.536;2024-02-16T14:19:15;1.50;;;0.90;;
53654;SDS011;39558;52.028;8.536;2024-02-16T14:21:42;1.27;;;0.70;;
53654;SDS011;39558;52.028;8.536;2024-02-16T14:24:08;2.97;;;0.80;;
53654;SDS011;39558;52.028;8.536;2024-02-16T14:26:35;3.47;;;0.90;;
53654;SDS011;39558;52.028;8.536;2024-02-16T14:29:02;4.32;;;0.82;;
53654;SDS011;39558;52.028;8.536;2024-02-16T14:31:28;1.98;;;0.80;;
53654;SDS011;39558;52.028;8.536;2024-02-16T14:33:54;2.72;;;0.80;;
53654;SDS011;39558;52.028;8.536;2024-02-16T14:36:21;1.42;;;0.60;;
53654;SDS011;39558;52.028;8.536;2024-02-16T14:38:47;1.63;;;0.63;;
53654;SDS011;39558;52.028;8.536;2024-02-16T14:41:13;2.03;;;0.77;;
53654;SDS011;39558;52.028;8.536;2024-02-16T14:43:41;5.28;;;0.75;;
53654;SDS011;39558;52.028;8.536;2024-02-16T14:46:08;1.10;;;0.68;;